Time;durP1;ratioP1;P1;durP2;ratioP2;P2;SDS_P1;SDS_P2;PMS_P1;PMS_P2;Temp;Humidity;BMP_temperature;BMP_pressure;BME280_temperature;BME280_humidity;BME280_pressure;Samples;Min_cycle;Max_cycle;Signal;HPM_P1;HPM_P2
2023/05/10 00:01:55;;;;;;;12.35;10.32;;;14.30;99.90;;;;;;5049324;28;20455;-64
2023/05/10 00:04:21;;;;;;;11.05;9.93;;;14.20;99.90;;;;;;5051743;28;20033;-64
2023/05/10 00:06:46;;;;;;;11.40;9.30;;;14.20;99.90;;;;;;5050806;28;20116;-63
2023/05/10 00:09:13;;;;;;;11.73;9.85;;;14.20;99.90;;;;;;5043753;28;20028;-63
2023/05/10 00:11:39;;;;;;;10.80;9.18;;;14.20;99.90;;;;;;5043137;28;20041;-63
2023/05/10 00:14:04;;;;;;;12.63;9.98;;;14.20;99.90;;;;;;5051368;28;20392;-63
2023/05/10 00:16:30;;;;;;;11.02;8.43;;;14.20;99.90;;;;;;5050365;28;20106;-63
2023/05/10 00:18:56;;;;;;;11.80;8.98;;;14.10;99.90;;;;;;5050209;28;20049;-63
2023/05/10 00:21:21;;;;;;;10.70;8.63;;;14.10;99.90;;;;;;5051208;28;20037;-63
2023/05/10 00:23:47;;;;;;;10.05;8.07;;;14.10;99.90;;;;;;5049410;28;20099;-64
2023/05/10 00:26:12;;;;;;;11.80;8.40;;;14.10;99.90;;;;;;5049931;28;20444;-64
2023/05/10 00:28:38;;;;;;;10.07;8.13;;;14.00;99.90;;;;;;5051786;28;20451;-64
2023/05/10 00:31:03;;;;;;;10.70;8.52;;;14.10;99.90;;;;;;5041811;28;20034;-63
2023/05/10 00:33:29;;;;;;;10.63;8.52;;;14.10;99.90;;;;;;5051796;28;20041;-64
2023/05/10 00:35:54;;;;;;;11.30;8.48;;;14.10;99.90;;;;;;5048070;28;20115;-64
2023/05/10 00:38:20;;;;;;;11.30;8.95;;;14.10;99.90;;;;;;5047941;28;20487;-64
2023/05/10 00:40:45;;;;;;;10.70;9.13;;;14.10;99.90;;;;;;5049841;28;20159;-64
2023/05/10 00:43:11;;;;;;;11.48;8.75;;;14.10;99.90;;;;;;5049959;28;20167;-64
2023/05/10 00:45:38;;;;;;;14.25;10.43;;;14.10;99.90;;;;;;5034755;28;20065;-64
2023/05/10 00:48:04;;;;;;;11.82;9.45;;;14.10;99.90;;;;;;5050187;28;20125;-64
2023/05/10 00:50:32;;;;;;;14.10;10.38;;;14.00;99.90;;;;;;5050244;28;20182;-64
2023/05/10 00:52:59;;;;;;;12.65;10.05;;;14.00;99.90;;;;;;5042956;28;20045;-63
2023/05/10 00:55:25;;;;;;;13.73;9.80;;;14.00;99.90;;;;;;5050201;28;20049;-63
2023/05/10 00:57:51;;;;;;;13.90;10.23;;;14.00;99.90;;;;;;5050982;28;20491;-63
2023/05/10 01:00:18;;;;;;;16.35;10.85;;;14.00;99.90;;;;;;5054182;28;20559;-63
2023/05/10 01:02:47;;;;;;;11.70;9.30;;;14.00;99.90;;;;;;5054081;28;20080;-63
2023/05/10 01:05:13;;;;;;;11.60;9.55;;;14.00;99.90;;;;;;5052897;28;20487;-63
2023/05/10 01:07:39;;;;;;;13.68;10.00;;;14.00;99.90;;;;;;5050619;28;20078;-63
2023/05/10 01:10:08;;;;;;;16.95;11.02;;;13.90;99.90;;;;;;5052640;28;20045;-63
2023/05/10 01:12:37;;;;;;;15.00;10.32;;;13.90;99.90;;;;;;5050837;28;20743;-63
2023/05/10 01:15:05;;;;;;;14.70;11.27;;;13.90;99.90;;;;;;5046547;28;20478;-63
2023/05/10 01:17:32;;;;;;;15.18;10.75;;;13.90;99.90;;;;;;5073019;28;20037;-64
2023/05/10 01:19:57;;;;;;;16.55;10.60;;;13.90;99.90;;;;;;5054068;28;20040;-64
2023/05/10 01:22:47;;;;;;;12.82;10.25;;;13.80;99.90;;;;;;5047560;28;20029;-64
2023/05/10 01:25:35;;;;;;;13.30;9.32;;;13.80;99.90;;;;;;5046145;28;20112;-64
2023/05/10 01:28:15;;;;;;;13.55;9.57;;;13.80;99.90;;;;;;5052404;28;20049;-64
2023/05/10 01:30:49;;;;;;;14.38;10.40;;;13.80;99.90;;;;;;5052628;28;20052;-64
2023/05/10 01:33:35;;;;;;;12.82;9.88;;;13.80;99.90;;;;;;5048222;28;20044;-64
2023/05/10 01:36:27;;;;;;;13.13;9.60;;;13.80;99.90;;;;;;5050239;28;20494;-64
2023/05/10 01:38:57;;;;;;;14.55;9.50;;;13.80;99.90;;;;;;5056661;28;20124;-63
2023/05/10 01:41:30;;;;;;;14.48;9.52;;;13.70;99.90;;;;;;5067901;22;20048;-66
2023/05/10 01:44:26;;;;;;;11.80;8.90;;;13.70;99.90;;;;;;5043714;28;20047;-66
2023/05/10 01:47:01;;;;;;;13.20;9.27;;;13.80;99.90;;;;;;5036645;28;20437;-66
2023/05/10 01:49:33;;;;;;;12.98;9.00;;;13.70;99.90;;;;;;5054167;28;20037;-66
2023/05/10 01:52:08;;;;;;;13.40;9.10;;;13.70;99.90;;;;;;5051920;28;20522;-66
2023/05/10 01:54:35;;;;;;;12.27;9.07;;;13.70;99.90;;;;;;5054458;28;20044;-66
2023/05/10 01:57:05;;;;;;;10.00;7.70;;;13.70;99.90;;;;;;5048652;28;20045;-66
2023/05/10 01:59:36;;;;;;;12.20;8.38;;;13.70;99.90;;;;;;5033057;28;20036;-66
2023/05/10 02:02:04;;;;;;;12.27;8.80;;;13.70;99.90;;;;;;5028462;28;20045;-66
2023/05/10 02:04:30;;;;;;;11.95;8.02;;;13.70;99.90;;;;;;5051611;28;20033;-66
2023/05/10 02:06:57;;;;;;;12.75;8.57;;;13.70;99.90;;;;;;5050287;28;20041;-66
2023/05/10 02:09:25;;;;;;;10.60;7.43;;;13.70;99.90;;;;;;5054227;28;20041;-66
2023/05/10 02:11:50;;;;;;;13.05;8.52;;;13.70;99.90;;;;;;5053547;28;20041;-66
2023/05/10 02:14:18;;;;;;;10.95;7.65;;;13.70;99.90;;;;;;5054110;28;20487;-66
2023/05/10 02:16:45;;;;;;;11.45;8.05;;;13.70;99.90;;;;;;5052408;28;20045;-66
2023/05/10 02:19:13;;;;;;;11.65;7.50;;;13.60;99.90;;;;;;5046225;28;20426;-67
2023/05/10 02:21:41;;;;;;;11.27;7.57;;;13.60;99.90;;;;;;5034731;28;20037;-66
2023/05/10 02:24:08;;;;;;;11.63;8.27;;;13.60;99.90;;;;;;5051451;28;20032;-66
2023/05/10 02:26:36;;;;;;;11.48;7.72;;;13.60;99.90;;;;;;5052821;28;20048;-66
2023/05/10 02:29:06;;;;;;;10.27;7.85;;;13.50;99.90;;;;;;5053176;28;20445;-66
2023/05/10 02:31:33;;;;;;;13.10;8.30;;;13.50;99.90;;;;;;5043370;28;20079;-66
2023/05/10 02:34:00;;;;;;;11.88;8.27;;;13.50;99.90;;;;;;5061429;28;20078;-66
2023/05/10 02:36:27;;;;;;;10.02;7.68;;;13.50;99.90;;;;;;5053875;28;20487;-66
2023/05/10 02:38:53;;;;;;;9.98;7.32;;;13.50;99.90;;;;;;5053152;28;20443;-66
2023/05/10 02:41:22;;;;;;;10.27;7.43;;;13.50;99.90;;;;;;5053011;28;20032;-66
2023/05/10 02:43:50;;;;;;;9.93;7.32;;;13.50;99.90;;;;;;5052746;28;20094;-66
2023/05/10 02:46:16;;;;;;;11.57;7.60;;;13.50;99.90;;;;;;5066203;28;20040;-66
2023/05/10 02:48:41;;;;;;;10.05;7.50;;;13.50;99.90;;;;;;5055335;28;20118;-66
2023/05/10 02:51:08;;;;;;;10.75;7.50;;;13.50;99.90;;;;;;5042958;28;20037;-66
2023/05/10 02:53:38;;;;;;;12.07;7.38;;;13.50;99.90;;;;;;5048211;28;20041;-66
2023/05/10 02:56:20;;;;;;;12.15;7.80;;;13.50;99.90;;;;;;5048880;28;20772;-66
2023/05/10 02:58:46;;;;;;;10.57;7.20;;;13.50;99.90;;;;;;5046712;28;20407;-66
2023/05/10 03:01:11;;;;;;;10.15;7.15;;;13.40;99.90;;;;;;5047455;28;20041;-66
2023/05/10 03:03:37;;;;;;;10.45;7.45;;;13.40;99.90;;;;;;5048223;28;20082;-66
2023/05/10 03:06:03;;;;;;;10.15;7.38;;;13.40;99.90;;;;;;5045076;28;20509;-66
2023/05/10 03:08:29;;;;;;;11.25;7.85;;;13.40;99.90;;;;;;5047633;28;20037;-66
2023/05/10 03:11:21;;;;;;;10.10;7.63;;;13.40;99.90;;;;;;5050198;28;20037;-66
2023/05/10 03:14:09;;;;;;;10.85;8.00;;;13.50;99.90;;;;;;5043341;28;20044;-66
2023/05/10 03:16:50;;;;;;;10.52;7.72;;;13.50;99.90;;;;;;5048910;28;20127;-65
2023/05/10 03:19:58;;;;;;;9.60;6.88;;;13.50;99.90;;;;;;5045717;28;20071;-66
2023/05/10 03:22:32;;;;;;;10.45;7.55;;;13.40;99.90;;;;;;4989391;28;20034;-65
2023/05/10 03:24:58;;;;;;;10.73;7.88;;;13.40;99.90;;;;;;5045506;28;20060;-65
2023/05/10 03:27:26;;;;;;;9.50;6.95;;;13.40;99.90;;;;;;5062466;28;20075;-65
2023/05/10 03:29:54;;;;;;;10.68;7.05;;;13.40;99.90;;;;;;5059897;28;20040;-65
2023/05/10 03:32:20;;;;;;;10.05;6.90;;;13.40;99.90;;;;;;5051052;28;20041;-66
2023/05/10 03:34:45;;;;;;;11.43;7.72;;;13.40;99.90;;;;;;5050836;28;20052;-65
2023/05/10 03:37:11;;;;;;;10.57;7.55;;;13.40;99.90;;;;;;5052112;28;20047;-65
2023/05/10 03:39:36;;;;;;;9.55;7.53;;;13.40;99.90;;;;;;5052270;28;20075;-66
2023/05/10 03:42:02;;;;;;;11.10;7.47;;;13.30;99.90;;;;;;5050558;28;20374;-66
2023/05/10 03:44:28;;;;;;;10.55;7.85;;;13.30;99.90;;;;;;5057641;28;20033;-65
2023/05/10 03:46:53;;;;;;;10.88;7.70;;;13.30;99.90;;;;;;5047731;28;20072;-66
2023/05/10 03:49:19;;;;;;;10.88;8.38;;;13.30;99.90;;;;;;5051546;28;20037;-66
2023/05/10 03:51:44;;;;;;;11.25;8.55;;;13.30;99.90;;;;;;5051732;28;20124;-66
2023/05/10 03:54:10;;;;;;;10.68;7.90;;;13.30;99.90;;;;;;5045476;28;20395;-66
2023/05/10 03:56:35;;;;;;;11.80;8.02;;;13.30;99.90;;;;;;5058932;28;20441;-65
2023/05/10 03:59:01;;;;;;;9.60;7.18;;;13.30;99.90;;;;;;5062407;28;20044;-65
2023/05/10 04:01:26;;;;;;;9.80;7.43;;;13.20;99.90;;;;;;5056851;28;20112;-66
2023/05/10 04:03:52;;;;;;;11.13;7.68;;;13.30;99.90;;;;;;5044482;28;20046;-66
2023/05/10 04:06:18;;;;;;;10.98;7.57;;;13.20;99.90;;;;;;5050300;28;20052;-66
2023/05/10 04:08:43;;;;;;;10.02;7.32;;;13.20;99.90;;;;;;5050845;28;20414;-66
2023/05/10 04:11:10;;;;;;;11.02;8.38;;;13.20;99.90;;;;;;5049216;28;20422;-66
2023/05/10 04:13:37;;;;;;;10.38;7.68;;;13.20;99.90;;;;;;5045664;28;20044;-66
2023/05/10 04:16:02;;;;;;;11.75;8.40;;;13.20;99.90;;;;;;5030730;28;20037;-66
2023/05/10 04:18:28;;;;;;;9.75;8.30;;;13.20;99.90;;;;;;5049404;28;20055;-66
2023/05/10 04:20:54;;;;;;;11.43;8.27;;;13.20;99.90;;;;;;5048644;28;20032;-66
2023/05/10 04:23:19;;;;;;;12.30;8.30;;;13.20;99.90;;;;;;5045700;28;20037;-67
2023/05/10 04:25:45;;;;;;;12.82;8.85;;;13.20;99.90;;;;;;5052498;28;20444;-66
2023/05/10 04:28:10;;;;;;;14.15;9.00;;;13.20;99.90;;;;;;5050899;28;20037;-67
2023/05/10 04:30:36;;;;;;;10.55;8.20;;;13.20;99.90;;;;;;5045140;28;20041;-66
2023/05/10 04:33:01;;;;;;;11.73;8.95;;;13.20;99.90;;;;;;5051389;28;20037;-66
2023/05/10 04:35:28;;;;;;;15.13;9.02;;;13.10;99.90;;;;;;5049664;28;20037;-66
2023/05/10 04:37:53;;;;;;;12.45;9.05;;;13.20;99.90;;;;;;5051151;28;20038;-66
2023/05/10 04:40:19;;;;;;;12.93;9.07;;;13.20;99.90;;;;;;5043132;28;20037;-66
2023/05/10 04:42:45;;;;;;;14.20;9.50;;;13.20;99.90;;;;;;5043499;28;20059;-66
2023/05/10 04:45:11;;;;;;;15.23;9.85;;;13.20;99.90;;;;;;5047466;28;20518;-66
2023/05/10 04:47:36;;;;;;;12.27;9.05;;;13.20;99.90;;;;;;5050971;28;20071;-66
2023/05/10 04:50:06;;;;;;;13.60;9.82;;;13.20;99.90;;;;;;5039984;28;20059;-66
2023/05/10 04:52:31;;;;;;;13.68;9.77;;;13.20;99.90;;;;;;5049747;28;20045;-66
2023/05/10 04:54:57;;;;;;;14.70;9.65;;;13.20;99.90;;;;;;5060906;28;20036;-66
2023/05/10 04:57:22;;;;;;;15.43;10.45;;;13.20;99.90;;;;;;5044694;28;20041;-66
2023/05/10 04:59:48;;;;;;;16.20;10.05;;;13.20;99.90;;;;;;5049467;28;20383;-66
2023/05/10 05:02:14;;;;;;;14.63;9.88;;;13.20;99.90;;;;;;5050428;28;20143;-66
2023/05/10 05:04:39;;;;;;;15.88;10.27;;;13.20;99.90;;;;;;5051594;28;20047;-67
2023/05/10 05:07:05;;;;;;;17.35;10.05;;;13.20;99.90;;;;;;5049027;28;20051;-67
2023/05/10 05:09:31;;;;;;;15.20;11.10;;;13.20;99.90;;;;;;5056953;28;20111;-66
2023/05/10 05:11:57;;;;;;;14.77;10.50;;;13.20;99.90;;;;;;5052767;28;20517;-66
2023/05/10 05:14:24;;;;;;;20.42;10.55;;;13.20;99.90;;;;;;5048206;28;20107;-66
2023/05/10 05:16:53;;;;;;;15.77;10.52;;;13.20;99.90;;;;;;5047285;28;20427;-66
2023/05/10 05:19:19;;;;;;;17.38;10.65;;;13.20;99.90;;;;;;5044910;28;20037;-66
2023/05/10 05:21:44;;;;;;;13.00;9.20;;;13.20;99.90;;;;;;5028426;28;20052;-66
2023/05/10 05:24:12;;;;;;;15.48;9.05;;;13.20;99.90;;;;;;5050498;28;20033;-66
2023/05/10 05:26:38;;;;;;;15.68;8.65;;;13.20;99.90;;;;;;5050798;28;20045;-67
2023/05/10 05:29:03;;;;;;;15.35;9.20;;;13.20;99.90;;;;;;5059062;28;20512;-66
2023/05/10 05:31:29;;;;;;;11.98;9.13;;;13.10;99.90;;;;;;5050631;28;20044;-66
2023/05/10 05:33:55;;;;;;;13.80;8.43;;;13.10;99.90;;;;;;5050967;28;20102;-66
2023/05/10 05:36:21;;;;;;;14.57;8.98;;;13.10;99.90;;;;;;5049021;28;20044;-66
2023/05/10 05:38:47;;;;;;;13.73;9.00;;;13.10;99.90;;;;;;5047467;28;20124;-67
2023/05/10 05:41:13;;;;;;;11.88;8.43;;;13.10;99.90;;;;;;5054255;28;20033;-67
2023/05/10 05:43:38;;;;;;;14.52;8.90;;;13.10;99.90;;;;;;5058397;28;20555;-66
2023/05/10 05:46:04;;;;;;;14.52;8.35;;;13.10;99.90;;;;;;5054625;28;20041;-66
2023/05/10 05:48:30;;;;;;;13.30;8.23;;;13.10;99.90;;;;;;5061040;28;20126;-66
2023/05/10 05:50:56;;;;;;;14.77;7.78;;;13.10;99.90;;;;;;5067486;28;20040;-67
2023/05/10 05:53:23;;;;;;;12.50;7.75;;;13.10;99.90;;;;;;5043866;28;20028;-66
2023/05/10 05:55:56;;;;;;;13.13;8.35;;;13.10;99.90;;;;;;5071525;28;20521;-67
2023/05/10 05:58:22;;;;;;;12.20;7.38;;;13.10;99.90;;;;;;5064242;28;20045;-67
2023/05/10 06:00:47;;;;;;;12.88;7.80;;;13.10;99.90;;;;;;5053635;28;20364;-67
2023/05/10 06:03:13;;;;;;;13.13;7.97;;;13.10;99.90;;;;;;5043389;28;20110;-66
2023/05/10 06:05:39;;;;;;;14.15;8.10;;;13.10;99.90;;;;;;5070345;28;20090;-66
2023/05/10 06:08:04;;;;;;;12.50;7.47;;;13.10;99.90;;;;;;5061671;28;20390;-67
2023/05/10 06:10:30;;;;;;;14.07;7.85;;;13.10;99.90;;;;;;5054335;28;20124;-66
2023/05/10 06:12:56;;;;;;;14.77;7.93;;;13.10;99.90;;;;;;5052874;28;20048;-66
2023/05/10 06:15:21;;;;;;;12.10;7.53;;;13.10;99.90;;;;;;5065284;28;20044;-66
2023/05/10 06:17:49;;;;;;;15.60;8.10;;;13.20;99.90;;;;;;5056122;28;20087;-67
2023/05/10 06:20:15;;;;;;;13.13;8.40;;;13.20;99.90;;;;;;5052353;28;20498;-66
2023/05/10 06:22:40;;;;;;;13.25;7.40;;;13.20;99.90;;;;;;5051474;28;20037;-66
2023/05/10 06:25:06;;;;;;;15.35;8.32;;;13.20;99.90;;;;;;5051611;28;20548;-67
2023/05/10 06:27:32;;;;;;;15.35;8.55;;;13.30;99.90;;;;;;5052842;28;20124;-66
2023/05/10 06:29:57;;;;;;;14.88;7.72;;;13.30;99.90;;;;;;5052923;28;20247;-67
2023/05/10 06:32:23;;;;;;;14.90;7.93;;;13.30;99.90;;;;;;5053388;28;20065;-66
2023/05/10 06:34:49;;;;;;;11.63;7.28;;;13.30;99.90;;;;;;5053478;28;20076;-66
2023/05/10 06:37:14;;;;;;;16.48;8.48;;;13.30;99.90;;;;;;5053951;28;20041;-66
2023/05/10 06:39:40;;;;;;;12.30;7.53;;;13.30;99.90;;;;;;5053895;28;20043;-66
2023/05/10 06:42:05;;;;;;;13.88;7.60;;;13.30;99.90;;;;;;5052908;28;20453;-66
2023/05/10 06:44:31;;;;;;;13.80;6.43;;;13.40;99.90;;;;;;5052217;28;20044;-67
2023/05/10 06:46:56;;;;;;;11.35;6.25;;;13.30;99.90;;;;;;5048798;28;20037;-66
2023/05/10 06:49:22;;;;;;;10.77;6.95;;;13.40;99.90;;;;;;5053353;28;20044;-66
2023/05/10 06:51:48;;;;;;;13.43;7.30;;;13.40;99.90;;;;;;5053302;28;20047;-66
2023/05/10 06:54:14;;;;;;;12.93;6.93;;;13.40;99.90;;;;;;5051294;28;20039;-66
2023/05/10 06:56:39;;;;;;;13.55;7.45;;;13.40;99.90;;;;;;5051704;28;20064;-67
2023/05/10 06:59:05;;;;;;;13.30;7.05;;;13.40;99.90;;;;;;5045957;28;20968;-66
2023/05/10 07:01:30;;;;;;;12.18;6.97;;;13.40;99.90;;;;;;5059827;28;20040;-66
2023/05/10 07:03:56;;;;;;;12.68;7.28;;;13.40;99.90;;;;;;5052060;28;20091;-66
2023/05/10 07:06:22;;;;;;;11.32;7.28;;;13.40;99.90;;;;;;5052598;28;20064;-66
2023/05/10 07:08:47;;;;;;;12.18;6.53;;;13.50;99.90;;;;;;5050770;28;20110;-66
2023/05/10 07:11:13;;;;;;;11.52;6.22;;;13.50;99.90;;;;;;5052133;28;20143;-66
2023/05/10 07:13:41;;;;;;;12.32;6.82;;;13.50;99.90;;;;;;5050572;28;20086;-66
2023/05/10 07:16:07;;;;;;;9.70;5.63;;;13.50;99.90;;;;;;5047076;28;20041;-66
2023/05/10 07:18:33;;;;;;;10.52;5.72;;;13.50;99.90;;;;;;5034210;28;20033;-66
2023/05/10 07:20:58;;;;;;;10.90;5.82;;;13.50;99.90;;;;;;5049760;28;20778;-66
2023/05/10 07:23:24;;;;;;;11.82;5.85;;;13.50;99.90;;;;;;5057170;28;20044;-66
2023/05/10 07:25:53;;;;;;;9.30;5.43;;;13.60;99.90;;;;;;5056852;28;20032;-66
2023/05/10 07:28:19;;;;;;;9.80;6.10;;;13.60;99.90;;;;;;5052451;28;20399;-66
2023/05/10 07:30:46;;;;;;;10.88;5.95;;;13.60;99.90;;;;;;5052371;28;20094;-66
2023/05/10 07:33:12;;;;;;;10.10;5.72;;;13.60;99.90;;;;;;5055452;28;20086;-66
2023/05/10 07:35:38;;;;;;;12.00;6.15;;;13.60;99.90;;;;;;5055892;28;20037;-66
2023/05/10 07:38:04;;;;;;;11.65;6.00;;;13.60;99.90;;;;;;5051654;28;20043;-66
2023/05/10 07:40:30;;;;;;;12.35;6.10;;;13.60;99.90;;;;;;5042295;28;20040;-68
2023/05/10 07:42:55;;;;;;;12.32;6.38;;;13.60;99.90;;;;;;5022792;22;20560;-60
2023/05/10 07:45:21;;;;;;;11.63;5.95;;;13.60;99.90;;;;;;5017345;28;20033;-61
2023/05/10 07:47:47;;;;;;;10.73;5.85;;;13.60;99.90;;;;;;5023812;28;20041;-61
2023/05/10 07:50:13;;;;;;;11.32;5.65;;;13.60;99.90;;;;;;5010270;28;20433;-61
2023/05/10 07:52:38;;;;;;;11.82;5.88;;;13.60;99.90;;;;;;5020446;28;20483;-61
2023/05/10 07:55:05;;;;;;;10.80;6.30;;;13.60;99.90;;;;;;5009549;28;20092;-61
2023/05/10 07:57:30;;;;;;;11.32;5.97;;;13.70;99.90;;;;;;5038311;28;20487;-61
2023/05/10 07:59:56;;;;;;;10.80;6.07;;;13.80;99.90;;;;;;5019149;28;20053;-61
2023/05/10 08:02:21;;;;;;;13.00;6.25;;;13.70;99.90;;;;;;5011841;28;20418;-61
2023/05/10 08:04:47;;;;;;;11.45;6.13;;;13.80;99.90;;;;;;5011786;28;20034;-61
2023/05/10 08:07:13;;;;;;;12.50;6.40;;;13.80;99.90;;;;;;5022787;28;20048;-60
2023/05/10 08:09:38;;;;;;;8.60;6.25;;;13.90;99.90;;;;;;4994741;28;20076;-61
2023/05/10 08:12:04;;;;;;;11.95;6.03;;;13.90;99.90;;;;;;5015233;28;20041;-61
2023/05/10 08:14:30;;;;;;;11.25;5.40;;;13.90;99.90;;;;;;5017146;28;20091;-61
2023/05/10 08:16:56;;;;;;;11.30;5.95;;;13.90;99.90;;;;;;4994647;28;20200;-61
2023/05/10 08:19:22;;;;;;;10.75;6.22;;;13.90;99.90;;;;;;5011693;28;20038;-61
2023/05/10 08:21:48;;;;;;;11.05;5.60;;;14.00;99.90;;;;;;5025884;28;20494;-61
2023/05/10 08:24:14;;;;;;;7.88;5.57;;;14.00;99.90;;;;;;5001442;28;20044;-61
2023/05/10 08:26:40;;;;;;;9.82;5.75;;;14.00;99.90;;;;;;5009023;28;20050;-61
2023/05/10 08:29:05;;;;;;;8.63;5.55;;;14.00;99.90;;;;;;4993066;28;20050;-61
2023/05/10 08:31:31;;;;;;;11.18;5.30;;;14.00;99.90;;;;;;5002630;28;20044;-61
2023/05/10 08:33:56;;;;;;;9.35;5.65;;;14.00;99.90;;;;;;5001523;28;20045;-61
2023/05/10 08:36:24;;;;;;;8.55;5.93;;;13.90;99.90;;;;;;5011166;28;20046;-61
2023/05/10 08:38:53;;;;;;;8.82;5.35;;;13.90;99.90;;;;;;5012991;28;20038;-61
2023/05/10 08:41:26;;;;;;;9.88;5.47;;;13.90;99.90;;;;;;5022256;28;20116;-61
2023/05/10 08:43:54;;;;;;;8.95;4.90;;;14.00;99.90;;;;;;5007540;28;20113;-61
2023/05/10 08:46:21;;;;;;;9.02;4.93;;;14.00;99.90;;;;;;4994878;28;20116;-61
2023/05/10 08:48:48;;;;;;;10.25;5.07;;;14.10;99.90;;;;;;5022702;28;20144;-61
2023/05/10 08:51:17;;;;;;;9.95;5.00;;;14.10;99.90;;;;;;4991683;28;20038;-61
2023/05/10 08:53:44;;;;;;;8.73;4.70;;;14.10;99.90;;;;;;5017916;28;20046;-61
2023/05/10 08:56:10;;;;;;;9.48;5.15;;;14.20;99.90;;;;;;4990289;28;20087;-61
2023/05/10 08:58:36;;;;;;;6.07;4.43;;;14.20;99.90;;;;;;5000211;28;20438;-61
2023/05/10 09:01:03;;;;;;;7.80;4.45;;;14.30;99.90;;;;;;5006611;28;20044;-61
2023/05/10 09:03:30;;;;;;;6.85;4.63;;;14.30;99.90;;;;;;4998069;28;20042;-61
2023/05/10 09:05:56;;;;;;;7.22;4.40;;;14.30;99.90;;;;;;5019119;28;20077;-61
2023/05/10 09:08:25;;;;;;;8.55;4.40;;;14.30;99.90;;;;;;5001950;28;20383;-61
2023/05/10 09:10:51;;;;;;;8.43;4.50;;;14.30;99.90;;;;;;5010225;28;20042;-61
2023/05/10 09:13:19;;;;;;;7.07;4.22;;;14.30;99.90;;;;;;4996531;28;20042;-61
2023/05/10 09:15:45;;;;;;;6.65;4.10;;;14.30;99.90;;;;;;4984442;28;20042;-61
2023/05/10 09:18:11;;;;;;;8.57;4.85;;;14.30;99.90;;;;;;4996031;28;20045;-61
2023/05/10 09:20:37;;;;;;;7.25;4.18;;;14.30;99.90;;;;;;5009517;28;20041;-61
2023/05/10 09:23:03;;;;;;;6.15;4.53;;;14.30;99.90;;;;;;5016911;28;20038;-61
2023/05/10 09:25:28;;;;;;;8.57;4.45;;;14.20;99.90;;;;;;5019799;28;20065;-61
2023/05/10 09:27:54;;;;;;;6.70;4.53;;;14.30;99.90;;;;;;5017433;28;20438;-61
2023/05/10 09:30:30;;;;;;;6.75;4.78;;;14.40;99.90;;;;;;5012079;28;20030;-61
2023/05/10 09:32:57;;;;;;;8.13;4.97;;;14.50;99.90;;;;;;5014522;28;20353;-61
2023/05/10 09:35:25;;;;;;;7.40;4.78;;;14.50;99.90;;;;;;4997527;28;20038;-61
2023/05/10 09:37:55;;;;;;;6.85;4.80;;;14.60;99.90;;;;;;4994724;28;20518;-61
2023/05/10 09:40:26;;;;;;;7.68;4.57;;;14.60;99.90;;;;;;5028689;28;20128;-61
2023/05/10 09:42:55;;;;;;;9.25;4.90;;;14.60;99.90;;;;;;5006781;28;20077;-61
2023/05/10 09:45:22;;;;;;;9.32;4.82;;;14.70;99.90;;;;;;5016830;28;20081;-61
2023/05/10 09:47:48;;;;;;;7.53;5.10;;;14.60;99.90;;;;;;5006013;28;20066;-61
2023/05/10 09:50:14;;;;;;;10.07;5.72;;;14.80;99.90;;;;;;5013113;28;20451;-61
2023/05/10 09:52:53;;;;;;;8.15;5.68;;;14.80;99.90;;;;;;5014041;28;20045;-61
2023/05/10 09:55:24;;;;;;;9.25;6.18;;;14.80;99.90;;;;;;4997564;28;20103;-62
2023/05/10 09:57:59;;;;;;;10.52;6.68;;;14.80;99.90;;;;;;5012478;28;20531;-62
2023/05/10 10:00:24;;;;;;;10.63;6.53;;;15.00;99.90;;;;;;5014114;28;20037;-61
2023/05/10 10:02:58;;;;;;;10.23;6.10;;;15.10;99.90;;;;;;5014588;28;20042;-61
2023/05/10 10:05:34;;;;;;;11.48;6.50;;;15.20;99.90;;;;;;5014688;28;20049;-61
2023/05/10 10:08:03;;;;;;;11.73;6.88;;;15.20;99.90;;;;;;4995605;28;20045;-61
2023/05/10 10:10:30;;;;;;;10.00;7.38;;;15.30;99.90;;;;;;5013836;28;20045;-61
2023/05/10 10:12:56;;;;;;;12.00;6.90;;;15.30;99.90;;;;;;5014050;28;20119;-61
2023/05/10 10:15:22;;;;;;;11.10;7.28;;;15.30;99.90;;;;;;5014741;28;20124;-61
2023/05/10 10:17:49;;;;;;;10.68;6.88;;;15.30;99.90;;;;;;5013914;28;20404;-61
2023/05/10 10:20:16;;;;;;;10.77;7.25;;;15.30;99.90;;;;;;5006694;28;20076;-61
2023/05/10 10:22:45;;;;;;;10.25;6.97;;;15.30;99.90;;;;;;5013838;28;20527;-61
2023/05/10 10:25:15;;;;;;;10.25;6.93;;;15.30;99.90;;;;;;5014356;28;20045;-61
2023/05/10 10:27:47;;;;;;;9.93;6.78;;;15.40;99.90;;;;;;5013690;28;20045;-61
2023/05/10 10:30:29;;;;;;;10.23;6.80;;;15.50;99.90;;;;;;5005516;28;20042;-61
2023/05/10 10:33:06;;;;;;;10.18;6.25;;;15.60;99.90;;;;;;5013617;28;20041;-62
2023/05/10 10:35:32;;;;;;;11.43;7.40;;;15.60;99.90;;;;;;5011664;28;20040;-61
2023/05/10 10:37:58;;;;;;;10.35;6.80;;;15.60;99.90;;;;;;5012574;28;20484;-61
2023/05/10 10:40:27;;;;;;;10.68;7.20;;;15.50;99.90;;;;;;5009418;28;20146;-61
2023/05/10 10:42:53;;;;;;;13.55;8.30;;;15.50;99.90;;;;;;5003860;28;20034;-61
2023/05/10 10:45:20;;;;;;;15.05;8.35;;;15.40;99.90;;;;;;5014121;28;20033;-61
2023/05/10 10:47:45;;;;;;;12.30;7.03;;;15.30;99.90;;;;;;5011965;28;20563;-61
2023/05/10 10:50:12;;;;;;;12.93;8.35;;;15.30;99.90;;;;;;5013654;28;20041;-61
2023/05/10 10:52:39;;;;;;;11.95;8.23;;;15.30;99.90;;;;;;5013433;28;20077;-61
2023/05/10 10:55:18;;;;;;;15.00;7.85;;;15.20;99.90;;;;;;5011933;28;20053;-61
2023/05/10 10:58:00;;;;;;;12.15;7.90;;;15.30;99.90;;;;;;4992433;28;20092;-61
2023/05/10 11:00:34;;;;;;;11.20;7.55;;;15.30;99.90;;;;;;4976240;28;20514;-62
2023/05/10 11:03:16;;;;;;;9.88;6.57;;;15.40;99.90;;;;;;4993701;28;20169;-61
2023/05/10 11:05:49;;;;;;;10.13;6.85;;;15.40;99.90;;;;;;4999145;28;20038;-62
2023/05/10 11:08:41;;;;;;;10.30;6.90;;;15.40;99.90;;;;;;5005445;28;20403;-61
2023/05/10 11:11:07;;;;;;;11.02;6.95;;;15.50;99.90;;;;;;5012975;28;20072;-61
2023/05/10 11:13:43;;;;;;;10.32;7.15;;;15.50;99.90;;;;;;4995865;28;20041;-61
2023/05/10 11:16:13;;;;;;;9.55;6.85;;;15.50;99.90;;;;;;5005902;28;20038;-61
2023/05/10 11:18:39;;;;;;;10.88;7.03;;;15.50;99.90;;;;;;5013218;28;20439;-61
2023/05/10 11:21:10;;;;;;;10.15;7.05;;;15.50;99.90;;;;;;5012992;28;20052;-61
2023/05/10 11:23:48;;;;;;;;;;;15.60;99.90;;;;;;5013450;28;20069;-61
2023/05/10 11:26:14;;;;;;;10.32;5.97;;;15.60;99.90;;;;;;5011834;28;19967;-61
2023/05/10 11:28:47;;;;;;;10.07;6.28;;;15.60;99.90;;;;;;5027534;28;20045;-61
2023/05/10 11:31:19;;;;;;;9.82;6.10;;;15.60;99.90;;;;;;4993377;28;20042;-61
2023/05/10 11:33:53;;;;;;;8.38;6.57;;;15.70;99.90;;;;;;4995325;28;20048;-61
2023/05/10 11:36:21;;;;;;;10.43;6.03;;;15.70;99.90;;;;;;5004983;28;20045;-61
2023/05/10 11:38:48;;;;;;;8.43;6.93;;;15.80;99.90;;;;;;5010726;28;20152;-61
2023/05/10 11:41:17;;;;;;;9.40;6.93;;;15.90;99.90;;;;;;5010068;28;20026;-61
2023/05/10 11:43:46;;;;;;;10.18;7.55;;;15.90;99.90;;;;;;5012640;28;20500;-61
2023/05/10 11:46:13;;;;;;;12.68;6.70;;;15.90;99.90;;;;;;5006856;28;20030;-61
2023/05/10 11:48:39;;;;;;;9.88;6.28;;;16.00;99.90;;;;;;5012117;28;20065;-62
2023/05/10 11:51:06;;;;;;;11.52;6.25;;;16.00;99.90;;;;;;5012769;28;20109;-61
2023/05/10 11:53:32;;;;;;;7.60;5.82;;;16.00;99.90;;;;;;5012722;28;20048;-61
2023/05/10 11:56:05;;;;;;;8.27;5.75;;;16.10;99.90;;;;;;5007334;28;20065;-61
2023/05/10 11:58:32;;;;;;;8.82;5.70;;;16.10;99.90;;;;;;5012198;28;20069;-60
2023/05/10 12:00:59;;;;;;;7.63;5.30;;;16.10;99.90;;;;;;5012304;28;20045;-61
2023/05/10 12:03:25;;;;;;;9.80;6.60;;;16.10;99.90;;;;;;5012257;28;20046;-61
2023/05/10 12:05:51;;;;;;;9.68;6.70;;;16.10;99.90;;;;;;5006431;28;20041;-61
2023/05/10 12:08:21;;;;;;;11.85;6.38;;;16.00;99.90;;;;;;4994461;28;20041;-61
2023/05/10 12:10:47;;;;;;;13.30;6.93;;;16.00;99.90;;;;;;4994714;28;20050;-61
2023/05/10 12:13:15;;;;;;;9.32;6.53;;;15.90;99.90;;;;;;4994991;28;20045;-62
2023/05/10 12:15:41;;;;;;;8.30;6.00;;;15.80;99.90;;;;;;4992724;28;20565;-62
2023/05/10 12:18:12;;;;;;;9.88;5.93;;;15.90;99.90;;;;;;5011629;28;20045;-61
2023/05/10 12:20:38;;;;;;;9.18;6.35;;;15.90;99.90;;;;;;5012400;28;20096;-62
2023/05/10 12:23:05;;;;;;;9.02;6.20;;;15.80;99.90;;;;;;4994076;28;20066;-61
2023/05/10 12:25:32;;;;;;;9.25;6.13;;;15.90;99.90;;;;;;4993442;28;20052;-62
2023/05/10 12:28:02;;;;;;;11.40;7.47;;;15.90;99.90;;;;;;5011689;28;20045;-62
2023/05/10 12:30:33;;;;;;;11.70;7.07;;;15.90;99.90;;;;;;5012075;28;20563;-62
2023/05/10 12:33:11;;;;;;;10.82;7.13;;;15.90;99.90;;;;;;5011573;28;20077;-61
2023/05/10 12:35:51;;;;;;;10.27;6.70;;;15.90;99.90;;;;;;4993169;28;20460;-61
2023/05/10 12:38:42;;;;;;;11.30;6.85;;;15.90;99.90;;;;;;5004563;28;20034;-61
2023/05/10 12:41:13;;;;;;;10.98;7.05;;;15.90;99.90;;;;;;5002522;28;20538;-61
2023/05/10 12:43:39;;;;;;;11.30;6.35;;;15.90;99.90;;;;;;5011957;28;20077;-61